Time;durP1;ratioP1;P1;durP2;ratioP2;P2;SDS_P1;SDS_P2;PMS_P1;PMS_P2;Temp;Humidity;BMP_temperature;BMP_pressure;BME280_temperature;BME280_humidity;BME280_pressure;Samples;Min_cycle;Max_cycle;Signal;HPM_P1;HPM_P2
2022/06/17 00:01:40;;;;;;;;;;;;;;;24.56;50.63;101984.97;7280633;19;153163;-57
2022/06/17 00:04:08;;;;;;;;;;;;;;;24.58;50.82;101981.81;7284114;19;153752;-57
2022/06/17 00:06:39;;;;;;;;;;;;;;;24.59;50.79;101972.19;7286339;19;152200;-58
2022/06/17 00:09:07;;;;;;;;;;;;;;;24.62;50.86;101968.75;7284497;19;153145;-58
2022/06/17 00:11:37;;;;;;;;;;;;;;;24.63;50.86;101973.25;7284308;19;154312;-57
2022/06/17 00:14:15;;;;;;;;;;;;;;;24.63;51.23;101971.25;7286069;19;151822;-57
2022/06/17 00:16:42;;;;;;;;;;;;;;;24.65;51.51;101956.81;7282813;19;153527;-57
2022/06/17 00:19:09;;;;;;;;;;;;;;;24.64;51.10;101970.13;7290390;19;154526;-58
2022/06/17 00:21:38;;;;;;;;;;;;;;;24.65;50.98;101966.16;7283192;19;153337;-57
2022/06/17 00:24:15;;;;;;;;;;;;;;;24.64;51.31;101958.81;7282093;19;153405;-57
2022/06/17 00:26:42;;;;;;;;;;;;;;;24.64;52.03;101960.78;7284452;19;152027;-57
2022/06/17 00:29:13;;;;;;;;;;;;;;;24.65;51.99;101960.50;7285947;19;154163;-56
2022/06/17 00:31:40;;;;;;;;;;;;;;;24.67;51.50;101951.69;7282354;19;153298;-56
2022/06/17 00:34:07;;;;;;;;;;;;;;;24.67;51.84;101957.34;7285085;19;151677;-57
2022/06/17 00:36:34;;;;;;;;;;;;;;;24.68;52.23;101959.84;7284737;19;153724;-58
2022/06/17 00:39:02;;;;;;;;;;;;;;;24.67;52.04;101961.00;7291252;19;154053;-57
2022/06/17 00:41:30;;;;;;;;;;;;;;;24.68;52.25;101959.00;7283981;19;152602;-57
2022/06/17 00:43:58;;;;;;;;;;;;;;;24.68;52.23;101954.19;7282723;19;153389;-57
2022/06/17 00:46:34;;;;;;;;;;;;;;;24.68;52.52;101962.69;7284264;19;151530;-57
2022/06/17 00:49:16;;;;;;;;;;;;;;;24.66;52.66;101945.22;7282720;19;152974;-55
2022/06/17 00:51:48;;;;;;;;;;;;;;;24.70;52.96;101954.75;7283404;19;153948;-56
2022/06/17 00:54:34;;;;;;;;;;;;;;;24.71;52.94;101958.41;7283322;19;151694;-57
2022/06/17 00:57:01;;;;;;;;;;;;;;;24.70;52.62;101951.06;7284786;19;152607;-57
2022/06/17 00:59:28;;;;;;;;;;;;;;;24.74;52.69;101955.78;7281803;19;153254;-57
2022/06/17 01:02:05;;;;;;;;;;;;;;;24.73;52.70;101953.28;7289470;19;151845;-58
2022/06/17 01:04:44;;;;;;;;;;;;;;;24.72;52.46;101955.25;7282562;19;154111;-58
2022/06/17 01:07:22;;;;;;;;;;;;;;;24.70;52.66;101951.06;7284895;19;152547;-58
2022/06/17 01:09:58;;;;;;;;;;;;;;;24.69;52.33;101950.22;7283295;19;152843;-58
2022/06/17 01:12:27;;;;;;;;;;;;;;;24.69;52.80;101955.88;7282532;19;153187;-57
2022/06/17 01:14:55;;;;;;;;;;;;;;;24.69;52.65;101946.56;7280100;19;151787;-57
2022/06/17 01:17:22;;;;;;;;;;;;;;;24.69;52.72;101941.75;7284392;19;153186;-57
2022/06/17 01:19:50;;;;;;;;;;;;;;;24.69;52.84;101938.09;7279997;19;153486;-57
2022/06/17 01:22:26;;;;;;;;;;;;;;;24.68;52.60;101931.59;7281953;19;152039;-57
2022/06/17 01:24:58;;;;;;;;;;;;;;;24.69;52.72;101936.09;7289474;19;152917;-57
2022/06/17 01:27:28;;;;;;;;;;;;;;;24.68;52.85;101931.59;7283857;19;152173;-57
2022/06/17 01:29:55;;;;;;;;;;;;;;;24.68;52.58;101942.91;7283979;19;152615;-57
2022/06/17 01:32:23;;;;;;;;;;;;;;;24.68;52.89;101939.22;7279697;19;154352;-57
2022/06/17 01:34:50;;;;;;;;;;;;;;;24.69;52.82;101933.28;7281517;19;152562;-57
2022/06/17 01:37:17;;;;;;;;;;;;;;;24.70;53.08;101939.78;7283113;19;153073;-57
2022/06/17 01:39:43;;;;;;;;;;;;;;;24.69;53.18;101941.75;7279311;19;153559;-57
2022/06/17 01:42:10;;;;;;;;;;;;;;;24.68;53.24;101936.41;7280541;19;152496;-56
2022/06/17 01:44:39;;;;;;;;;;;;;;;24.68;53.40;101933.56;7282728;19;153121;-58
2022/06/17 01:47:08;;;;;;;;;;;;;;;24.67;53.40;101929.06;7288045;19;154764;-57
2022/06/17 01:49:38;;;;;;;;;;;;;;;24.67;53.28;101918.59;7283296;19;153378;-57
2022/06/17 01:52:13;;;;;;;;;;;;;;;24.68;53.74;101920.28;7279642;19;153987;-57
2022/06/17 01:54:50;;;;;;;;;;;;;;;24.68;53.49;101920.28;7284333;19;151658;-57
2022/06/17 01:57:21;;;;;;;;;;;;;;;24.68;53.71;101922.28;7281265;19;153539;-56
2022/06/17 01:59:51;;;;;;;;;;;;;;;24.69;53.71;101913.50;7278238;19;153944;-56
2022/06/17 02:02:18;;;;;;;;;;;;;;;24.69;53.69;101910.66;7278909;19;151879;-59
2022/06/17 02:04:53;;;;;;;;;;;;;;;24.72;53.71;101907.19;7282865;19;153476;-57
2022/06/17 02:07:23;;;;;;;;;;;;;;;24.69;53.92;101915.47;7280963;19;153574;-56
2022/06/17 02:09:49;;;;;;;;;;;;;;;24.68;53.97;101908.97;7295283;19;152173;-56
2022/06/17 02:12:17;;;;;;;;;;;;;;;24.66;53.86;101913.28;7287729;19;153231;-57
2022/06/17 02:14:45;;;;;;;;;;;;;;;24.66;53.90;101913.28;7286433;19;152241;-56
2022/06/17 02:17:12;;;;;;;;;;;;;;;24.66;53.98;101914.13;7289244;19;153423;-57
2022/06/17 02:19:40;;;;;;;;;;;;;;;24.65;54.06;101908.78;7284514;19;154000;-56
2022/06/17 02:22:12;;;;;;;;;;;;;;;24.66;53.85;101899.16;7286884;19;151840;-58
2022/06/17 02:24:39;;;;;;;;;;;;;;;24.65;54.20;101900.31;7287843;19;152603;-57
2022/06/17 02:27:08;;;;;;;;;;;;;;;24.64;53.87;101882.50;7285788;19;153347;-57
2022/06/17 02:29:36;;;;;;;;;;;;;;;24.64;54.14;101887.31;7287379;19;152272;-58
2022/06/17 02:32:04;;;;;;;;;;;;;;;24.64;53.93;101884.50;7294435;19;153505;-59
2022/06/17 02:34:31;;;;;;;;;;;;;;;24.64;53.88;101885.31;7288485;19;152070;-58
2022/06/17 02:37:10;;;;;;;;;;;;;;;24.63;54.11;101878.00;7287118;19;152551;-57
2022/06/17 02:39:40;;;;;;;;;;;;;;;24.63;53.68;101883.66;7287334;19;154040;-58
2022/06/17 02:42:15;;;;;;;;;;;;;;;24.63;53.88;101883.66;7284886;19;152464;-56
2022/06/17 02:44:42;;;;;;;;;;;;;;;24.63;53.77;101888.47;7285756;19;153137;-58
2022/06/17 02:47:10;;;;;;;;;;;;;;;24.63;53.91;101892.13;7287027;19;154011;-58
2022/06/17 02:49:39;;;;;;;;;;;;;;;24.63;53.91;101892.13;7287852;19;151863;-56
2022/06/17 02:52:13;;;;;;;;;;;;;;;24.63;53.96;101888.47;7290553;19;152520;-56
2022/06/17 02:54:41;;;;;;;;;;;;;;;24.63;53.93;101882.81;7288465;19;151519;-56
2022/06/17 02:57:13;;;;;;;;;;;;;;;24.63;53.88;101865.84;7288399;19;152899;-57
2022/06/17 02:59:50;;;;;;;;;;;;;;;24.64;53.87;101867.53;7284872;19;153393;-56
2022/06/17 03:02:19;;;;;;;;;;;;;;;24.64;53.57;101871.19;7284067;19;151994;-58
2022/06/17 03:04:47;;;;;;;;;;;;;;;24.63;53.83;101882.81;7285795;19;152627;-57
2022/06/17 03:07:19;;;;;;;;;;;;;;;24.67;51.96;101881.88;7286111;19;153830;-57
2022/06/17 03:09:47;;;;;;;;;;;;;;;24.63;47.38;101875.16;7286950;19;152117;-57
2022/06/17 03:12:16;;;;;;;;;;;;;;;24.59;44.73;101870.47;7287277;19;152621;-57
2022/06/17 03:15:03;;;;;;;;;;;;;;;24.58;46.46;101869.63;7293029;19;153913;-56
2022/06/17 03:17:31;;;;;;;;;;;;;;;24.57;48.89;101864.31;7287757;19;152933;-56
2022/06/17 03:20:00;;;;;;;;;;;;;;;24.55;49.76;101863.75;7285925;19;153554;-57
2022/06/17 03:22:27;;;;;;;;;;;;;;;24.53;49.96;101861.25;7284687;19;151806;-56
2022/06/17 03:25:13;;;;;;;;;;;;;;;24.54;50.43;101864.91;7283141;19;153710;-56
2022/06/17 03:27:47;;;;;;;;;;;;;;;24.53;50.27;101851.94;7283965;19;153148;-57
2022/06/17 03:30:16;;;;;;;;;;;;;;;24.53;50.43;101857.59;7287674;19;151786;-58
2022/06/17 03:32:45;;;;;;;;;;;;;;;24.53;51.04;101858.41;7284376;19;153165;-57
2022/06/17 03:35:20;;;;;;;;;;;;;;;24.52;51.20;101856.75;7286006;19;153241;-55
2022/06/17 03:37:53;;;;;;;;;;;;;;;24.52;51.05;101848.28;7294677;19;152155;-56
2022/06/17 03:40:22;;;;;;;;;;;;;;;24.53;50.97;101843.47;7285308;19;153281;-56
2022/06/17 03:43:01;;;;;;;;;;;;;;;24.52;51.11;101834.16;7283263;19;151740;-57
2022/06/17 03:45:44;;;;;;;;;;;;;;;24.52;51.23;101831.34;7286192;19;153540;-56
2022/06/17 03:48:14;;;;;;;;;;;;;;;24.52;51.28;101842.63;7285867;19;153623;-56
2022/06/17 03:50:43;;;;;;;;;;;;;;;24.52;51.31;101839.81;7285360;19;151928;-58
2022/06/17 03:53:25;;;;;;;;;;;;;;;24.51;51.64;101852.25;7285488;19;152511;-57
2022/06/17 03:55:53;;;;;;;;;;;;;;;24.52;51.26;101856.75;7284255;19;153235;-57
2022/06/17 03:58:20;;;;;;;;;;;;;;;24.52;51.69;101850.28;7286255;19;151529;-57
2022/06/17 04:00:59;;;;;;;;;;;;;;;24.51;51.40;101846.59;7291560;19;153367;-57
2022/06/17 04:03:29;;;;;;;;;;;;;;;24.54;51.62;101853.59;7280499;19;151908;-57
2022/06/17 04:05:58;;;;;;;;;;;;;;;24.53;51.78;101864.06;7285727;19;152508;-57
2022/06/17 04:08:25;;;;;;;;;;;;;;;24.53;51.68;101871.72;7284466;19;153238;-57
2022/06/17 04:10:52;;;;;;;;;;;;;;;24.53;51.56;101864.06;7285587;19;151731;-55
2022/06/17 04:13:22;;;;;;;;;;;;;;;24.54;51.86;101864.91;7283370;19;153451;-57
2022/06/17 04:16:08;;;;;;;;;;;;;;;24.52;52.13;101859.59;7286146;19;155682;-56
2022/06/17 04:18:35;;;;;;;;;;;;;;;24.52;52.20;101851.13;7283216;19;152276;-57
2022/06/17 04:21:04;;;;;;;;;;;;;;;24.53;52.09;101849.13;7284714;19;153173;-57
2022/06/17 04:23:33;;;;;;;;;;;;;;;24.54;52.19;101847.94;7288971;19;151894;-57
2022/06/17 04:26:00;;;;;;;;;;;;;;;24.54;52.23;101850.78;7282067;19;153927;-57
2022/06/17 04:28:30;;;;;;;;;;;;;;;24.53;52.06;101852.75;7283168;19;153298;-57
2022/06/17 04:30:59;;;;;;;;;;;;;;;24.53;52.15;101849.94;7284507;19;152200;-57
2022/06/17 04:33:29;;;;;;;;;;;;;;;24.52;52.48;101842.63;7284597;19;152586;-56
2022/06/17 04:36:10;;;;;;;;;;;;;;;24.53;52.30;101844.28;7284092;19;153293;-56
2022/06/17 04:38:46;;;;;;;;;;;;;;;24.54;52.40;101843.16;7282660;19;151893;-58
2022/06/17 04:41:14;;;;;;;;;;;;;;;24.53;52.65;101838.63;7285240;19;152636;-57
2022/06/17 04:43:47;;;;;;;;;;;;;;;24.54;52.90;101831.00;7280775;19;153538;-56
2022/06/17 04:46:37;;;;;;;;;;;;;;;24.54;52.97;101836.66;7293192;19;151759;-58
2022/06/17 04:49:05;;;;;;;;;;;;;;;24.54;52.99;101831.00;7281894;19;154366;-57
2022/06/17 04:51:34;;;;;;;;;;;;;;;24.54;53.34;101836.66;7280933;19;151707;-57
2022/06/17 04:54:03;;;;;;;;;;;;;;;24.53;53.02;101843.47;7285127;19;153338;-57
2022/06/17 04:56:32;;;;;;;;;;;;;;;24.54;53.14;101836.66;7282756;19;153213;-57
2022/06/17 04:58:59;;;;;;;;;;;;;;;24.54;53.01;101848.78;7283338;19;151897;-57
2022/06/17 05:01:27;;;;;;;;;;;;;;;24.56;53.03;101846.50;7283931;19;153311;-57
2022/06/17 05:03:58;;;;;;;;;;;;;;;24.56;53.27;101843.69;7280520;19;154044;-57
2022/06/17 05:06:25;;;;;;;;;;;;;;;24.56;53.64;101837.19;7292507;19;151800;-57
2022/06/17 05:08:56;;;;;;;;;;;;;;;24.57;53.67;101845.34;7282172;19;154290;-56
2022/06/17 05:11:34;;;;;;;;;;;;;;;24.57;53.65;101847.34;7283923;19;151648;-57
2022/06/17 05:14:07;;;;;;;;;;;;;;;24.57;53.80;101841.69;7284240;19;153298;-57
2022/06/17 05:16:34;;;;;;;;;;;;;;;24.57;53.65;101845.34;7280350;19;153213;-57
2022/06/17 05:19:01;;;;;;;;;;;;;;;24.58;53.90;101849.00;7283771;19;151946;-57
2022/06/17 05:21:28;;;;;;;;;;;;;;;24.58;54.23;101846.16;7282766;19;152469;-57
2022/06/17 05:23:56;;;;;;;;;;;;;;;24.58;54.00;101849.00;7280481;19;153873;-56
2022/06/17 05:26:23;;;;;;;;;;;;;;;24.57;54.20;101850.16;7281968;19;152019;-57
2022/06/17 05:28:50;;;;;;;;;;;;;;;24.58;54.38;101847.00;7289433;19;153467;-56
2022/06/17 05:31:18;;;;;;;;;;;;;;;24.58;54.48;101852.66;7280314;19;152334;-57
2022/06/17 05:33:48;;;;;;;;;;;;;;;24.58;54.75;101863.13;7282427;19;152555;-57
2022/06/17 05:36:15;;;;;;;;;;;;;;;24.58;54.77;101863.97;7281713;19;153221;-56
2022/06/17 05:38:42;;;;;;;;;;;;;;;24.58;54.70;101869.63;7283534;19;151973;-58
2022/06/17 05:41:17;;;;;;;;;;;;;;;24.57;54.62;101865.13;7283490;19;152551;-57
2022/06/17 05:43:43;;;;;;;;;;;;;;;24.57;54.86;101867.97;7282614;19;153253;-56
2022/06/17 05:46:10;;;;;;;;;;;;;;;24.58;54.95;101874.44;7290546;19;151729;-57
2022/06/17 05:48:37;;;;;;;;;;;;;;;24.58;55.06;101883.75;7287685;19;152522;-57
2022/06/17 05:51:04;;;;;;;;;;;;;;;24.58;54.76;101883.75;7296635;19;153482;-56
2022/06/17 05:53:30;;;;;;;;;;;;;;;24.60;54.82;101895.59;7288018;19;153467;-57
2022/06/17 05:55:57;;;;;;;;;;;;;;;24.62;54.89;101909.41;7289324;19;151989;-57
2022/06/17 05:58:24;;;;;;;;;;;;;;;24.65;54.79;101909.63;7288628;19;151853;-58
2022/06/17 06:00:50;;;;;;;;;;;;;;;24.69;54.50;101909.81;7290208;19;153178;-59
2022/06/17 06:03:19;;;;;;;;;;;;;;;24.65;54.03;101903.97;7285695;19;154790;-58
2022/06/17 06:05:46;;;;;;;;;;;;;;;24.65;54.16;101903.13;7287076;19;153144;-57
2022/06/17 06:08:12;;;;;;;;;;;;;;;24.64;54.24;101907.09;7288785;19;152567;-58
2022/06/17 06:10:39;;;;;;;;;;;;;;;24.63;54.04;101911.91;7286529;19;152724;-57
2022/06/17 06:13:06;;;;;;;;;;;;;;;24.64;54.64;101926.88;7295251;19;152214;-57
2022/06/17 06:15:36;;;;;;;;;;;;;;;24.67;54.37;101929.06;7286397;19;153215;-57
2022/06/17 06:18:03;;;;;;;;;;;;;;;24.71;54.43;101933.78;7288247;19;152454;-57
2022/06/17 06:20:30;;;;;;;;;;;;;;;24.71;53.52;101935.81;7288321;19;152597;-57
2022/06/17 06:22:56;;;;;;;;;;;;;;;24.66;47.58;101930.25;7285433;19;153227;-57
2022/06/17 06:25:23;;;;;;;;;;;;;;;24.63;48.82;101916.72;7287445;19;151801;-55
2022/06/17 06:27:50;;;;;;;;;;;;;;;24.62;48.21;101924.34;7287608;19;153079;-57
2022/06/17 06:30:26;;;;;;;;;;;;;;;24.61;48.22;101927.50;7286884;19;154292;-57
2022/06/17 06:32:54;;;;;;;;;;;;;;;24.57;48.29;101916.00;7287379;19;151834;-56
2022/06/17 06:35:23;;;;;;;;;;;;;;;24.57;47.47;101926.47;7293750;19;152552;-56
2022/06/17 06:37:50;;;;;;;;;;;;;;;24.57;46.51;101924.47;7288115;19;151880;-57
2022/06/17 06:40:17;;;;;;;;;;;;;;;24.44;43.01;101908.31;7286941;19;153162;-57
2022/06/17 06:42:45;;;;;;;;;;;;;;;24.32;42.06;101905.19;7287070;19;154107;-57
2022/06/17 06:45:14;;;;;;;;;;;;;;;24.32;44.70;101897.53;7287118;19;151988;-57
2022/06/17 06:47:41;;;;;;;;;;;;;;;24.27;42.04;101899.63;7287557;19;153291;-56
2022/06/17 06:50:11;;;;;;;;;;;;;;;24.17;41.57;101896.97;7285668;19;154024;-55
2022/06/17 06:52:38;;;;;;;;;;;;;;;24.11;41.43;101893.41;7288118;19;152001;-58
2022/06/17 06:55:08;;;;;;;;;;;;;;;24.06;41.14;101887.84;7286348;19;153153;-57
2022/06/17 06:57:41;;;;;;;;;;;;;;;23.98;41.26;101877.25;7293229;19;151902;-57
2022/06/17 07:00:08;;;;;;;;;;;;;;;23.94;41.68;101884.66;7283847;19;153778;-57
2022/06/17 07:02:34;;;;;;;;;;;;;;;23.93;41.36;101874.53;7284001;19;154408;-56
2022/06/17 07:05:01;;;;;;;;;;;;;;;23.86;41.24;101866.44;7287912;19;151977;-58
2022/06/17 07:07:35;;;;;;;;;;;;;;;23.87;41.60;101862.47;7286520;19;153444;-56
2022/06/17 07:10:03;;;;;;;;;;;;;;;23.83;41.74;101863.41;7285721;19;153273;-57
2022/06/17 07:12:30;;;;;;;;;;;;;;;23.82;41.85;101861.72;7287549;19;151538;-57
2022/06/17 07:14:56;;;;;;;;;;;;;;;23.81;42.10;101858.06;7288277;19;152876;-56
2022/06/17 07:17:23;;;;;;;;;;;;;;;23.80;41.63;101852.75;7293068;19;153993;-56
2022/06/17 07:19:50;;;;;;;;;;;;;;;23.75;41.64;101850.84;7285674;19;152832;-56
2022/06/17 07:22:16;;;;;;;;;;;;;;;23.73;41.34;101863.56;7286037;19;153123;-55
2022/06/17 07:24:45;;;;;;;;;;;;;;;23.79;41.58;101851.06;7283383;19;151822;-57
2022/06/17 07:27:14;;;;;;;;;;;;;;;23.87;42.08;101847.53;7285248;19;152313;-59
2022/06/17 07:29:41;;;;;;;;;;;;;;;23.85;42.83;101850.66;7285237;19;154100;-56
2022/06/17 07:32:07;;;;;;;;;;;;;;;23.87;43.37;101856.00;7286800;19;151615;-57
2022/06/17 07:34:40;;;;;;;;;;;;;;;23.89;43.28;101856.53;7286551;19;152789;-57
2022/06/17 07:39:54;;;;;;;;;;;;;;;23.90;43.50;101838.44;7294175;19;153250;-57
2022/06/17 07:42:22;;;;;;;;;;;;;;;23.90;42.84;101835.59;7284644;19;154088;-56
2022/06/17 07:44:48;;;;;;;;;;;;;;;23.88;42.94;101835.94;7284270;19;151749;-57
2022/06/17 07:47:17;;;;;;;;;;;;;;;23.89;43.27;101829.13;7285241;19;153346;-56
2022/06/17 07:49:44;;;;;;;;;;;;;;;23.89;43.14;101817.81;7284954;19;153421;-56
2022/06/17 07:52:11;;;;;;;;;;;;;;;23.86;42.76;101815.63;7286832;19;152126;-56
2022/06/17 07:54:38;;;;;;;;;;;;;;;23.87;43.07;101808.00;7286847;19;153063;-57
2022/06/17 07:57:05;;;;;;;;;;;;;;;23.86;43.10;101804.34;7283815;19;153807;-58
2022/06/17 07:59:32;;;;;;;;;;;;;;;23.87;43.13;101810.81;7284017;19;151899;-56
2022/06/17 08:01:58;;;;;;;;;;;;;;;23.86;43.01;101801.53;7292488;19;152122;-58
2022/06/17 08:04:32;;;;;;;;;;;;;;;23.86;43.17;101800.69;7283890;19;151671;-56
2022/06/17 08:07:05;;;;;;;;;;;;;;;23.86;43.08;101792.22;7282389;19;153443;-56
2022/06/17 08:09:32;;;;;;;;;;;;;;;23.86;43.03;101793.06;7284784;19;153267;-58
2022/06/17 08:11:59;;;;;;;;;;;;;;;23.86;43.01;101789.38;7285071;19;151906;-58
2022/06/17 08:14:27;;;;;;;;;;;;;;;23.86;43.11;101778.94;7284519;19;152658;-58
2022/06/17 08:17:00;;;;;;;;;;;;;;;23.87;42.87;101774.13;7282450;19;153297;-56
2022/06/17 08:19:26;;;;;;;;;;;;;;;23.86;42.90;101769.63;7286361;19;151906;-58
2022/06/17 08:21:53;;;;;;;;;;;;;;;23.87;43.24;101774.97;7285158;19;152156;-56
2022/06/17 08:24:30;;;;;;;;;;;;;;;23.88;43.14;101776.66;7290505;19;153922;-57
2022/06/17 08:26:58;;;;;;;;;;;;;;;23.88;43.53;101771.00;7284316;19;152021;-58
2022/06/17 08:29:27;;;;;;;;;;;;;;;23.90;43.20;101776.31;7283142;19;153608;-57
2022/06/17 08:34:59;;;;;;;;;;;;;;;23.92;43.39;101771.22;7285488;19;152801;-58
2022/06/17 08:37:26;;;;;;;;;;;;;;;23.92;43.39;101765.56;7284201;19;154443;-57
2022/06/17 08:39:53;;;;;;;;;;;;;;;23.94;42.95;101780.19;7285365;19;151703;-57
2022/06/17 08:42:26;;;;;;;;;;;;;;;23.94;42.98;101775.38;7284837;19;153908;-56
2022/06/17 08:45:01;;;;;;;;;;;;;;;23.96;42.82;101789.22;7281503;19;154276;-56
2022/06/17 08:47:48;;;;;;;;;;;;;;;23.98;42.81;101780.44;7292394;19;152242;-55
2022/06/17 08:50:21;;;;;;;;;;;;;;;24.01;42.52;101788.28;7282824;19;154506;-58
2022/06/17 08:53:13;;;;;;;;;;;;;;;24.01;42.71;101785.44;7284456;19;152820;-57
2022/06/17 08:55:47;;;;;;;;;;;;;;;24.04;42.20;101782.00;7285958;19;152519;-58
2022/06/17 08:58:17;;;;;;;;;;;;;;;24.06;42.48;101774.06;7284650;19;154532;-58
2022/06/17 09:01:02;;;;;;;;;;;;;;;24.05;42.57;101775.19;7283762;19;151660;-57
2022/06/17 09:03:37;;;;;;;;;;;;;;;24.05;42.31;101764.75;7284131;19;152999;-58
2022/06/17 09:06:07;;;;;;;;;;;;;;;24.06;42.39;101754.28;7281468;19;153971;-56
2022/06/17 09:08:45;;;;;;;;;;;;;;;24.07;42.24;101762.47;7291108;19;152182;-57
2022/06/17 09:11:16;;;;;;;;;;;;;;;24.09;42.38;101764.94;7282997;19;153216;-56
2022/06/17 09:14:03;;;;;;;;;;;;;;;24.08;42.29;101769.75;7284266;19;152767;-56
2022/06/17 09:16:45;;;;;;;;;;;;;;;24.09;42.34;101770.59;7283027;19;153065;-58
2022/06/17 09:19:15;;;;;;;;;;;;;;;24.11;42.21;101766.34;7289589;19;153257;-58
2022/06/17 09:21:46;;;;;;;;;;;;;;;24.11;42.05;101763.50;7289714;19;151867;-58
2022/06/17 09:24:16;;;;;;;;;;;;;;;24.14;42.12;101770.50;7289126;19;152702;-58
2022/06/17 09:26:56;;;;;;;;;;;;;;;24.14;42.13;101779.81;7286956;19;153327;-56
2022/06/17 09:29:26;;;;;;;;;;;;;;;24.16;42.25;101776.72;7287965;19;152080;-62
2022/06/17 09:31:57;;;;;;;;;;;;;;;24.14;42.52;101778.97;7294551;19;153793;-57
2022/06/17 09:34:39;;;;;;;;;;;;;;;24.18;42.42;101780.03;7288276;19;152124;-57
2022/06/17 09:37:07;;;;;;;;;;;;;;;24.18;42.51;101768.75;7288168;19;153468;-58
2022/06/17 09:39:44;;;;;;;;;;;;;;;24.19;42.53;101776.06;7289010;19;153728;-56
2022/06/17 09:42:18;;;;;;;;;;;;;;;24.18;42.66;101763.94;7289354;19;152154;-58
2022/06/17 09:44:44;;;;;;;;;;;;;;;24.20;42.52;101760.81;7288115;19;153311;-55
2022/06/17 09:47:21;;;;;;;;;;;;;;;24.21;42.51;101752.00;7287041;19;153275;-56
2022/06/17 09:49:55;;;;;;;;;;;;;;;24.25;42.45;101749.41;7288676;19;152459;-56
2022/06/17 09:52:42;;;;;;;;;;;;;;;24.25;42.85;101744.59;7288162;19;153197;-57
2022/06/17 09:55:17;;;;;;;;;;;;;;;24.26;42.76;101734.97;7295033;19;153963;-56
2022/06/17 09:58:06;;;;;;;;;;;;;;;24.27;42.52;101735.81;7288528;19;153752;-56
2022/06/17 10:00:39;;;;;;;;;;;;;;;24.28;42.58;101732.66;7251422;19;157099;-57
2022/06/17 10:03:15;;;;;;;;;;;;;;;24.31;42.87;101732.03;7278419;19;151941;-56
2022/06/17 10:06:00;;;;;;;;;;;;;;;24.30;42.75;101727.53;7283250;19;152948;-56
2022/06/17 10:08:26;;;;;;;;;;;;;;;24.30;42.85;101729.53;7275001;19;155003;-57
2022/06/17 10:11:20;;;;;;;;;;;;;;;24.30;43.02;101716.22;7284115;19;151703;-55
2022/06/17 10:14:08;;;;;;;;;;;;;;;24.29;42.87;101719.41;7283025;19;152578;-56
2022/06/17 10:20:00;;;;;;;;;;;;;;;24.34;43.42;101720.13;7293731;19;152444;-57
2022/06/17 10:22:56;;;;;;;;;;;;;;;24.37;43.08;101724.28;7284696;19;154083;-57
2022/06/17 10:25:23;;;;;;;;;;;;;;;24.36;43.25;101723.44;7284547;19;151870;-58
2022/06/17 10:27:57;;;;;;;;;;;;;;;24.40;42.85;101714.34;7273086;19;154265;-57
2022/06/17 10:30:48;;;;;;;;;;;;;;;24.41;42.88;101714.03;7278265;19;152899;-58
2022/06/17 10:33:16;;;;;;;;;;;;;;;24.42;43.38;101710.06;7284610;19;151798;-56
2022/06/17 10:35:44;;;;;;;;;;;;;;;24.41;43.43;101705.56;7284319;19;153265;-56
2022/06/17 10:38:37;;;;;;;;;;;;;;;24.43;43.10;101700.44;7272426;19;153823;-56
2022/06/17 10:41:03;;;;;;;;;;;;;;;24.45;43.13;101715.06;7283275;19;151714;-58
2022/06/17 10:43:32;;;;;;;;;;;;;;;24.46;43.33;101702.63;7291089;19;154300;-57
2022/06/17 10:45:59;;;;;;;;;;;;;;;24.47;43.17;101697.81;7278501;19;152650;-57
2022/06/17 10:48:32;;;;;;;;;;;;;;;24.52;43.34;101698.53;7284095;19;152566;-58
2022/06/17 10:51:01;;;;;;;;;;;;;;;24.53;43.11;101708.66;7283988;19;153444;-56
2022/06/17 10:53:33;;;;;;;;;;;;;;;24.55;42.69;101685.75;7283058;19;152419;-57
2022/06/17 10:56:04;;;;;;;;;;;;;;;24.56;43.38;101684.59;7282757;19;152685;-57
2022/06/17 10:58:33;;;;;;;;;;;;;;;24.56;43.25;101693.06;7284192;19;153161;-57
2022/06/17 11:01:00;;;;;;;;;;;;;;;24.58;43.12;101690.75;7288107;19;151874;-55
2022/06/17 11:03:27;;;;;;;;;;;;;;;24.58;43.23;101691.59;7287785;19;153486;-58
2022/06/17 11:05:56;;;;;;;;;;;;;;;24.61;43.28;101710.75;7290340;19;154189;-57
2022/06/17 11:08:25;;;;;;;;;;;;;;;24.62;43.08;101712.41;7285269;19;153304;-58
2022/06/17 11:10:53;;;;;;;;;;;;;;;24.65;43.64;101730.72;7286790;19;153831;-56
2022/06/17 11:13:20;;;;;;;;;;;;;;;24.66;43.31;101716.28;7287985;19;152067;-56
2022/06/17 11:15:50;;;;;;;;;;;;;;;24.68;43.41;101690.53;7287363;19;153486;-56
2022/06/17 11:18:21;;;;;;;;;;;;;;;24.69;43.43;101693.03;7286091;19;153599;-56
2022/06/17 11:21:02;;;;;;;;;;;;;;;24.71;43.49;101690.72;7247044;19;154325;-58
2022/06/17 11:23:35;;;;;;;;;;;;;;;24.71;43.52;101682.22;7279240;19;153578;-56
2022/06/17 11:26:11;;;;;;;;;;;;;;;24.72;43.57;101677.41;7288637;19;154173;-56
2022/06/17 11:28:53;;;;;;;;;;;;;;;24.72;43.39;101666.13;7283838;19;152593;-57
2022/06/17 11:31:49;;;;;;;;;;;;;;;24.74;43.86;101692.91;7282730;19;153339;-55
2022/06/17 11:34:26;;;;;;;;;;;;;;;24.75;43.79;101666.34;7282179;19;153194;-58
2022/06/17 11:37:17;;;;;;;;;;;;;;;24.79;43.78;101686.31;7284393;19;152735;-58
2022/06/17 11:39:45;;;;;;;;;;;;;;;24.81;43.81;101686.81;7275664;19;154579;-56
2022/06/17 11:42:24;;;;;;;;;;;;;;;24.84;43.99;101672.06;7280812;19;152136;-57
2022/06/17 11:44:56;;;;;;;;;;;;;;;24.86;43.81;101675.41;7282193;19;153339;-58
2022/06/17 11:47:24;;;;;;;;;;;;;;;24.90;43.82;101659.47;7281514;19;154285;-56
2022/06/17 11:49:53;;;;;;;;;;;;;;;24.94;43.88;101651.22;7291381;19;153798;-57
2022/06/17 11:52:32;;;;;;;;;;;;;;;24.94;44.15;101642.72;7280958;19;153361;-57
2022/06/17 11:54:59;;;;;;;;;;;;;;;24.95;43.87;101650.88;7280252;19;152004;-58
2022/06/17 11:57:30;;;;;;;;;;;;;;;24.99;43.65;101653.88;7282517;19;152565;-58
2022/06/17 11:59:58;;;;;;;;;;;;;;;25.02;43.84;101648.44;7276345;19;153140;-57
2022/06/17 12:02:26;;;;;;;;;;;;;;;25.04;43.55;101648.09;7285580;19;151748;-57
2022/06/17 12:04:54;;;;;;;;;;;;;;;25.07;43.42;101647.47;7285458;19;152891;-58
2022/06/17 12:07:27;;;;;;;;;;;;;;;25.08;43.45;101640.63;7284306;19;155692;-58
2022/06/17 12:10:12;;;;;;;;;;;;;;;25.08;43.61;101647.13;7283960;19;152134;-57
2022/06/17 12:12:39;;;;;;;;;;;;;;;25.06;43.99;101662.75;7291634;19;155374;-56
2022/06/17 12:15:08;;;;;;;;;;;;;;;25.09;43.83;101640.31;7285734;19;152148;-56
2022/06/17 12:17:38;;;;;;;;;;;;;;;25.11;43.83;101640.00;7243222;19;153507;-57
2022/06/17 12:20:20;;;;;;;;;;;;;;;25.11;43.93;101631.53;7279332;19;153275;-58
2022/06/17 12:23:13;;;;;;;;;;;;;;;25.12;43.67;101633.22;7283230;19;154220;-57
2022/06/17 12:25:42;;;;;;;;;;;;;;;25.13;44.07;101627.19;7280195;19;153308;-56
2022/06/17 12:28:30;;;;;;;;;;;;;;;25.11;44.06;101621.06;7280945;19;153006;-57
2022/06/17 12:31:01;;;;;;;;;;;;;;;25.08;44.30;101618.00;7282204;19;151572;-56
2022/06/17 12:33:31;;;;;;;;;;;;;;;25.06;44.59;101617.53;7281593;19;153780;-56
2022/06/17 12:36:03;;;;;;;;;;;;;;;25.06;44.00;101606.22;7287183;19;154015;-57
2022/06/17 12:38:38;;;;;;;;;;;;;;;25.04;44.28;101617.84;7280209;19;153783;-64
2022/06/17 12:41:11;;;;;;;;;;;;;;;25.03;44.47;101618.97;7276032;19;153447;-55
2022/06/17 12:43:42;;;;;;;;;;;;;;;25.04;44.30;101620.66;7278882;19;152214;-56
2022/06/17 12:46:14;;;;;;;;;;;;;;;25.04;44.47;101611.34;7279955;19;152784;-56
2022/06/17 12:48:52;;;;;;;;;;;;;;;25.05;44.43;101613.84;7280133;19;153358;-57
2022/06/17 12:54:15;;;;;;;;;;;;;;;25.11;44.38;101628.69;7282524;19;153248;-57
2022/06/17 12:56:57;;;;;;;;;;;;;;;25.11;44.28;101604.09;7279516;19;153158;-57
2022/06/17 12:59:43;;;;;;;;;;;;;;;25.11;44.68;101594.75;7285126;19;152226;-58
2022/06/17 13:02:12;;;;;;;;;;;;;;;25.09;44.48;101606.38;7279632;19;153695;-57